Time;durP1;ratioP1;P1;durP2;ratioP2;P2;SDS_P1;SDS_P2;PMS_P1;PMS_P2;Temp;Humidity;BMP_temperature;BMP_pressure;BME280_temperature;BME280_humidity;BME280_pressure;Samples;Min_cycle;Max_cycle;Signal;HPM_P1;HPM_P2
2024/04/15 00:00:10;;;;;;;6.80;2.20;;;10.60;99.90;;;;;;5484242;21;20278;-84
2024/04/15 00:02:36;;;;;;;13.43;3.05;;;10.50;99.90;;;;;;5460693;26;20228;-84
2024/04/15 00:05:06;;;;;;;10.73;5.65;;;10.50;99.90;;;;;;5444909;26;20233;-82
2024/04/15 00:07:34;;;;;;;5.90;2.50;;;10.50;99.90;;;;;;5460751;26;20282;-82
2024/04/15 00:10:03;;;;;;;10.32;2.30;;;10.40;99.90;;;;;;5457924;26;20280;-83
2024/04/15 00:12:29;;;;;;;11.80;2.97;;;10.50;99.90;;;;;;5411606;26;20326;-84
2024/04/15 00:14:57;;;;;;;7.35;2.25;;;10.50;99.90;;;;;;5432160;26;20229;-84
2024/04/15 00:17:23;;;;;;;7.90;2.10;;;10.50;99.90;;;;;;5409622;26;20275;-83
2024/04/15 00:19:53;;;;;;;17.23;3.57;;;10.50;99.90;;;;;;5430219;26;20706;-84
2024/04/15 00:22:20;;;;;;;19.10;3.40;;;10.50;99.90;;;;;;5422378;26;20467;-83
2024/04/15 00:24:51;;;;;;;15.45;3.70;;;10.50;99.90;;;;;;5430831;26;20271;-83
2024/04/15 00:27:17;;;;;;;14.60;3.10;;;10.40;99.90;;;;;;5415756;26;20233;-84
2024/04/15 00:29:46;;;;;;;18.60;3.07;;;10.40;99.90;;;;;;5416015;26;20285;-85
2024/04/15 00:32:12;;;;;;;11.15;2.88;;;10.30;99.90;;;;;;5399636;26;20465;-85
2024/04/15 00:34:41;;;;;;;9.57;2.60;;;10.30;99.90;;;;;;5404540;26;20279;-86
2024/04/15 00:37:07;;;;;;;9.10;3.20;;;10.20;99.90;;;;;;5422621;26;20230;-84
2024/04/15 00:39:36;;;;;;;17.10;3.78;;;10.10;99.90;;;;;;5414704;26;20229;-84
2024/04/15 00:42:05;;;;;;;6.80;2.53;;;10.10;99.90;;;;;;5424508;26;20255;-83
2024/04/15 00:44:34;;;;;;;12.82;2.70;;;10.00;99.90;;;;;;5420935;26;20235;-84
2024/04/15 00:47:01;;;;;;;12.10;3.10;;;10.00;99.90;;;;;;5424847;26;20229;-85
2024/04/15 00:49:32;;;;;;;12.13;3.28;;;10.00;99.90;;;;;;5429102;26;20233;-84
2024/04/15 00:51:59;;;;;;;12.73;4.07;;;9.90;99.90;;;;;;5403771;26;20288;-84
2024/04/15 00:54:28;;;;;;;9.43;2.38;;;9.90;99.90;;;;;;5434825;26;20233;-84
2024/04/15 00:56:55;;;;;;;6.88;2.88;;;9.80;99.90;;;;;;5439083;26;20209;-82
2024/04/15 00:59:27;;;;;;;13.57;2.20;;;9.80;99.90;;;;;;5441588;26;20264;-81
2024/04/15 01:01:54;;;;;;;10.05;3.33;;;9.70;99.90;;;;;;5441147;26;20272;-82
2024/04/15 01:04:23;;;;;;;9.63;2.95;;;9.80;99.90;;;;;;5441561;26;20278;-83
2024/04/15 01:06:51;;;;;;;14.60;3.10;;;9.70;99.90;;;;;;5440603;26;20264;-83
2024/04/15 01:09:20;;;;;;;9.48;3.28;;;9.70;99.90;;;;;;5426205;26;20237;-82
2024/04/15 01:11:46;;;;;;;9.43;2.47;;;9.70;99.90;;;;;;5408441;26;20230;-82
2024/04/15 01:14:15;;;;;;;8.02;2.95;;;9.80;99.90;;;;;;5427167;26;20237;-83
2024/04/15 01:16:43;;;;;;;19.52;2.80;;;9.70;99.90;;;;;;5407619;26;20278;-84
2024/04/15 01:19:12;;;;;;;4.47;2.38;;;9.70;99.90;;;;;;5412585;26;20242;-83
2024/04/15 01:21:39;;;;;;;7.47;2.45;;;9.60;99.90;;;;;;5419030;26;20272;-80
2024/04/15 01:24:10;;;;;;;6.50;3.50;;;9.60;99.90;;;;;;5425679;26;20264;-82
2024/04/15 01:26:36;;;;;;;12.70;3.20;;;9.60;99.90;;;;;;5408545;26;20285;-83
2024/04/15 01:29:05;;;;;;;9.43;3.53;;;9.60;99.90;;;;;;5433376;26;20276;-82
2024/04/15 01:31:31;;;;;;;12.30;4.53;;;9.60;99.90;;;;;;5402802;26;20325;-85
2024/04/15 01:34:00;;;;;;;9.20;2.93;;;9.50;99.90;;;;;;5427379;26;20245;-83
2024/04/15 01:36:26;;;;;;;13.60;3.05;;;9.50;99.90;;;;;;5430024;26;20544;-83
2024/04/15 01:38:54;;;;;;;8.88;3.58;;;9.50;99.90;;;;;;5401711;26;20235;-84
2024/04/15 01:41:23;;;;;;;13.95;3.60;;;9.50;99.90;;;;;;5429992;26;20237;-83
2024/04/15 01:43:52;;;;;;;8.65;3.35;;;9.60;99.90;;;;;;5409183;26;20720;-83
2024/04/15 01:46:18;;;;;;;10.55;2.75;;;9.60;99.90;;;;;;5423040;26;20267;-83
2024/04/15 01:48:46;;;;;;;10.73;2.90;;;9.60;99.90;;;;;;5413703;26;20234;-83
2024/04/15 01:51:12;;;;;;;9.57;2.65;;;9.70;99.90;;;;;;5412275;26;20470;-83
2024/04/15 01:53:41;;;;;;;11.45;3.03;;;9.60;99.90;;;;;;5432157;26;20221;-83
2024/04/15 01:56:07;;;;;;;4.28;2.20;;;9.50;99.90;;;;;;5436384;26;20221;-83
2024/04/15 01:58:38;;;;;;;5.53;2.45;;;9.60;99.90;;;;;;5441996;26;20201;-82
2024/04/15 02:01:05;;;;;;;8.05;2.95;;;9.50;99.90;;;;;;5405881;26;20240;-82
2024/04/15 02:03:33;;;;;;;15.30;3.85;;;9.40;99.90;;;;;;5406210;26;20227;-82
2024/04/15 02:05:59;;;;;;;18.65;3.92;;;9.30;99.90;;;;;;5419851;26;20238;-82
2024/04/15 02:08:28;;;;;;;10.27;2.97;;;9.40;99.90;;;;;;5404995;26;20248;-83
2024/04/15 02:10:54;;;;;;;12.90;2.85;;;9.30;99.90;;;;;;5417153;26;20238;-83
2024/04/15 02:13:22;;;;;;;12.63;2.72;;;9.30;99.90;;;;;;5422163;26;20277;-83
2024/04/15 02:15:51;;;;;;;12.90;2.58;;;9.20;99.90;;;;;;5424482;26;20233;-82
2024/04/15 02:18:20;;;;;;;8.13;2.90;;;9.20;99.90;;;;;;5410909;26;20280;-83
2024/04/15 02:20:46;;;;;;;11.77;2.85;;;9.10;99.90;;;;;;5417542;26;20292;-84
2024/04/15 02:23:14;;;;;;;9.60;3.30;;;9.10;99.90;;;;;;5415894;26;20244;-84
2024/04/15 02:25:42;;;;;;;16.67;5.07;;;9.10;99.90;;;;;;5405143;26;20531;-83
2024/04/15 02:28:10;;;;;;;10.50;3.40;;;9.10;99.90;;;;;;5421105;26;20233;-82
2024/04/15 02:30:37;;;;;;;10.60;3.38;;;9.10;99.90;;;;;;5428315;26;20255;-81
2024/04/15 02:33:08;;;;;;;10.40;2.55;;;9.10;99.90;;;;;;5407570;26;20226;-81
2024/04/15 02:35:34;;;;;;;12.88;2.92;;;9.10;99.90;;;;;;5421290;26;20273;-81
2024/04/15 02:38:03;;;;;;;5.20;2.72;;;8.90;99.90;;;;;;5423485;26;20268;-86
2024/04/15 02:40:29;;;;;;;7.75;2.75;;;9.20;99.90;;;;;;5427175;26;20816;-84
2024/04/15 02:42:58;;;;;;;12.07;3.00;;;9.20;99.90;;;;;;5433491;26;20249;-84
2024/04/15 02:45:23;;;;;;;10.82;2.70;;;9.20;99.90;;;;;;5430016;26;20463;-82
2024/04/15 02:47:52;;;;;;;12.80;3.90;;;9.20;99.90;;;;;;5415808;26;20234;-85
2024/04/15 02:50:21;;;;;;;13.35;3.47;;;9.30;99.90;;;;;;5434260;26;20513;-84
2024/04/15 02:52:49;;;;;;;9.55;2.45;;;9.30;99.90;;;;;;5404920;26;20539;-84
2024/04/15 02:55:15;;;;;;;11.73;4.30;;;9.30;99.90;;;;;;5431153;26;20225;-84
2024/04/15 02:57:44;;;;;;;8.75;3.92;;;9.20;99.90;;;;;;5411163;26;20249;-84
2024/04/15 03:00:11;;;;;;;8.95;2.72;;;9.10;99.90;;;;;;5420112;26;20229;-83
2024/04/15 03:02:39;;;;;;;11.27;2.63;;;9.10;99.90;;;;;;5432427;26;20325;-84
2024/04/15 03:05:05;;;;;;;5.95;2.40;;;9.20;99.90;;;;;;5417121;26;20225;-83
2024/04/15 03:07:37;;;;;;;11.57;3.58;;;9.10;99.90;;;;;;5420233;26;20238;-83
2024/04/15 03:10:03;;;;;;;19.15;3.65;;;9.10;99.90;;;;;;5413847;26;20288;-85
2024/04/15 03:12:32;;;;;;;10.55;2.95;;;9.10;99.90;;;;;;5425281;26;20314;-84
2024/04/15 03:14:57;;;;;;;11.38;2.50;;;9.10;99.90;;;;;;5404349;26;20630;-83
2024/04/15 03:17:26;;;;;;;12.90;3.60;;;9.10;99.90;;;;;;5432449;26;20229;-82
2024/04/15 03:19:52;;;;;;;13.15;3.17;;;9.00;99.90;;;;;;5417156;26;20521;-84
2024/04/15 03:22:21;;;;;;;14.85;3.20;;;9.10;99.90;;;;;;5416621;26;20249;-83
2024/04/15 03:24:50;;;;;;;28.00;5.43;;;9.10;99.90;;;;;;5417106;26;20234;-84
2024/04/15 03:27:19;;;;;;;14.85;3.30;;;9.20;99.90;;;;;;5420965;26;20298;-84
2024/04/15 03:29:45;;;;;;;11.32;2.55;;;9.20;99.90;;;;;;5416368;26;20230;-84
2024/04/15 03:32:14;;;;;;;8.35;2.72;;;9.30;99.90;;;;;;5407124;26;20684;-85
2024/04/15 03:34:40;;;;;;;9.55;2.70;;;9.30;99.90;;;;;;5412918;26;20236;-82
2024/04/15 03:37:09;;;;;;;9.52;2.78;;;9.30;99.90;;;;;;5431496;26;20229;-84
2024/04/15 03:39:37;;;;;;;14.05;2.72;;;9.40;99.90;;;;;;5434063;26;20264;-84
2024/04/15 03:42:09;;;;;;;11.80;3.58;;;9.50;99.90;;;;;;5419731;26;20237;-85
2024/04/15 03:44:37;;;;;;;9.05;2.33;;;9.50;99.90;;;;;;5436021;26;20354;-84
2024/04/15 03:47:04;;;;;;;6.53;2.53;;;9.60;99.90;;;;;;5388560;26;20222;-84
2024/04/15 03:49:32;;;;;;;5.97;2.35;;;9.60;99.90;;;;;;5409183;26;20274;-83
2024/04/15 03:51:59;;;;;;;5.80;2.00;;;9.60;99.90;;;;;;5442370;26;20263;-82
2024/04/15 03:54:27;;;;;;;6.55;2.28;;;9.70;99.90;;;;;;5442328;26;20258;-83
2024/04/15 03:56:53;;;;;;;12.73;3.05;;;9.70;99.90;;;;;;5442018;26;20213;-83
2024/04/15 03:59:24;;;;;;;10.48;3.25;;;9.70;99.90;;;;;;5442174;26;20218;-83
2024/04/15 04:01:50;;;;;;;7.72;2.65;;;9.70;99.90;;;;;;5442093;26;20227;-83
2024/04/15 04:04:19;;;;;;;9.20;2.55;;;9.70;99.90;;;;;;5417807;26;20210;-83
2024/04/15 04:06:45;;;;;;;8.00;2.10;;;9.60;99.90;;;;;;5422367;26;20214;-83
2024/04/15 04:09:14;;;;;;;34.07;4.57;;;9.60;99.90;;;;;;5439548;26;20269;-84
2024/04/15 04:11:40;;;;;;;7.47;3.17;;;9.60;99.90;;;;;;5421834;26;20519;-84
2024/04/15 04:14:08;;;;;;;8.00;3.10;;;9.50;99.90;;;;;;5419248;26;20227;-83
2024/04/15 04:16:37;;;;;;;5.45;2.10;;;9.50;99.90;;;;;;5431642;26;20233;-85
2024/04/15 04:19:05;;;;;;;9.07;2.40;;;9.50;99.90;;;;;;5426214;26;20241;-83
2024/04/15 04:21:31;;;;;;;8.23;2.72;;;9.50;99.90;;;;;;5428593;26;20237;-83
2024/04/15 04:24:01;;;;;;;6.47;1.83;;;9.50;99.90;;;;;;5418848;26;20268;-83
2024/04/15 04:26:27;;;;;;;6.90;2.50;;;9.40;99.90;;;;;;5429817;26;20471;-83
2024/04/15 04:28:56;;;;;;;8.13;2.53;;;9.40;99.90;;;;;;5432101;26;20280;-82
2024/04/15 04:31:22;;;;;;;8.00;2.15;;;9.40;99.90;;;;;;5435272;26;20279;-83
2024/04/15 04:33:53;;;;;;;5.20;3.40;;;9.40;99.90;;;;;;5422578;26;20277;-83
2024/04/15 04:36:19;;;;;;;6.65;2.65;;;9.50;99.90;;;;;;5406811;26;20272;-83
2024/04/15 04:38:48;;;;;;;13.32;3.28;;;9.50;99.90;;;;;;5407350;26;20262;-82
2024/04/15 04:41:14;;;;;;;7.00;2.53;;;9.40;99.90;;;;;;5405995;26;20238;-84
2024/04/15 04:43:43;;;;;;;5.45;1.98;;;9.40;99.90;;;;;;5406368;26;20265;-83
2024/04/15 04:46:11;;;;;;;8.07;2.20;;;9.40;99.90;;;;;;5424854;26;20221;-83
2024/04/15 04:48:39;;;;;;;4.03;1.98;;;9.50;99.90;;;;;;5438213;26;20657;-82
2024/04/15 04:51:09;;;;;;;6.95;2.65;;;9.50;99.90;;;;;;5437961;26;20234;-83
2024/04/15 04:53:38;;;;;;;6.32;2.08;;;9.50;99.90;;;;;;5425639;26;20957;-82
2024/04/15 04:56:08;;;;;;;4.70;2.30;;;9.40;99.90;;;;;;5430247;26;20230;-82
2024/04/15 04:58:37;;;;;;;11.95;2.15;;;9.40;99.90;;;;;;5423449;26;20237;-83
2024/04/15 05:01:10;;;;;;;8.95;2.80;;;9.40;99.90;;;;;;5427672;26;20268;-82
2024/04/15 05:03:39;;;;;;;2.63;1.90;;;9.40;99.90;;;;;;5441375;26;20229;-81
2024/04/15 05:06:08;;;;;;;5.88;2.50;;;9.40;99.90;;;;;;5432438;26;20289;-83
2024/04/15 05:08:37;;;;;;;4.43;2.03;;;9.40;99.90;;;;;;5420365;26;20238;-82
2024/04/15 05:11:03;;;;;;;6.07;3.95;;;9.30;99.90;;;;;;5406053;26;20226;-82
2024/04/15 05:13:32;;;;;;;5.40;2.13;;;9.30;99.90;;;;;;5406654;26;20248;-84
2024/04/15 05:16:03;;;;;;;7.85;2.03;;;9.20;99.90;;;;;;5405665;26;20253;-82
2024/04/15 05:18:31;;;;;;;10.82;1.60;;;9.50;99.90;;;;;;5403616;26;20258;-84
2024/04/15 05:20:59;;;;;;;5.28;1.90;;;9.60;99.90;;;;;;5415694;26;20233;-84
2024/04/15 05:23:31;;;;;;;5.03;2.20;;;9.80;99.90;;;;;;5418895;26;20230;-85
2024/04/15 05:25:58;;;;;;;6.72;2.17;;;9.80;99.90;;;;;;5428203;26;20574;-84
2024/04/15 05:28:27;;;;;;;5.88;2.22;;;10.00;99.90;;;;;;5411424;26;20222;-84
2024/04/15 05:30:56;;;;;;;3.58;1.60;;;10.30;99.90;;;;;;5432911;26;20232;-85
2024/04/15 05:33:25;;;;;;;5.40;2.08;;;10.60;99.90;;;;;;5429974;26;20333;-84
2024/04/15 05:35:51;;;;;;;12.18;2.75;;;11.10;99.90;;;;;;5404268;26;20277;-83
2024/04/15 05:38:20;;;;;;;7.05;2.25;;;11.60;99.90;;;;;;5433880;26;20284;-85
2024/04/15 05:40:49;;;;;;;9.23;2.38;;;12.30;99.90;;;;;;5419820;26;20780;-85
2024/04/15 05:43:28;;;;;;;5.30;1.95;;;13.00;99.90;;;;;;5427523;26;20287;-83
2024/04/15 05:45:54;;;;;;;7.43;2.53;;;13.60;99.90;;;;;;5423680;26;20233;-85
2024/04/15 05:48:25;;;;;;;4.85;2.30;;;14.10;99.90;;;;;;5421423;26;20883;-84
2024/04/15 05:50:51;;;;;;;4.05;2.22;;;14.80;99.90;;;;;;5423196;26;20589;-82
2024/04/15 05:53:20;;;;;;;6.20;2.22;;;14.90;99.90;;;;;;5417925;26;20249;-83
2024/04/15 05:55:48;;;;;;;10.80;2.55;;;15.10;99.90;;;;;;5419772;26;20327;-85
2024/04/15 05:58:17;;;;;;;5.07;2.38;;;15.10;99.90;;;;;;5410936;26;20323;-85
2024/04/15 06:00:43;;;;;;;7.13;2.17;;;15.00;99.90;;;;;;5422840;26;20237;-83
2024/04/15 06:03:14;;;;;;;5.73;2.17;;;14.70;99.90;;;;;;5459747;21;20264;-83
2024/04/15 06:05:43;;;;;;;8.90;2.67;;;14.90;99.90;;;;;;5478913;26;20477;-84
2024/04/15 06:08:15;;;;;;;14.00;3.45;;;14.80;99.80;;;;;;5481673;26;20489;-86
2024/04/15 06:10:41;;;;;;;2.38;2.05;;;14.10;99.90;;;;;;5495713;26;20266;-86
2024/04/15 06:13:12;;;;;;;4.83;2.20;;;14.00;99.90;;;;;;5507464;26;20227;-86
2024/04/15 06:15:39;;;;;;;9.45;2.90;;;14.20;99.90;;;;;;5505001;26;20549;-85
2024/04/15 06:18:08;;;;;;;5.00;2.85;;;14.60;99.90;;;;;;5511159;26;20262;-84
2024/04/15 06:20:37;;;;;;;5.80;2.87;;;15.10;99.90;;;;;;5495815;26;20255;-85
2024/04/15 06:23:06;;;;;;;4.87;2.63;;;15.70;99.60;;;;;;5495834;26;20504;-87
2024/04/15 06:25:32;;;;;;;7.10;2.90;;;16.60;98.90;;;;;;5490078;26;20491;-81
2024/04/15 06:28:01;;;;;;;4.70;2.60;;;17.60;96.80;;;;;;5481873;26;20464;-79
2024/04/15 06:30:29;;;;;;;8.33;3.00;;;18.40;95.00;;;;;;5478567;26;20517;-79
2024/04/15 06:32:58;;;;;;;6.73;3.00;;;18.80;94.10;;;;;;5471011;26;20476;-80
2024/04/15 06:35:24;;;;;;;8.90;3.73;;;19.30;92.90;;;;;;5471299;26;20470;-79
2024/04/15 06:37:54;;;;;;;4.43;2.70;;;19.50;92.00;;;;;;5494088;26;20558;-79
2024/04/15 06:40:20;;;;;;;7.63;2.73;;;19.70;91.90;;;;;;5476280;26;20520;-84
2024/04/15 06:42:48;;;;;;;5.90;2.80;;;19.70;91.80;;;;;;5479727;26;20477;-79
2024/04/15 06:45:14;;;;;;;5.27;3.07;;;20.20;91.60;;;;;;5494718;26;20462;-80
2024/04/15 06:47:46;;;;;;;9.73;3.40;;;20.50;91.30;;;;;;5491745;26;20567;-80
2024/04/15 06:50:12;;;;;;;6.93;3.60;;;20.00;90.50;;;;;;5491627;26;20464;-81
2024/04/15 06:52:40;;;;;;;5.77;3.03;;;19.10;91.60;;;;;;5489472;26;20495;-81
2024/04/15 06:55:06;;;;;;;5.23;3.53;;;18.40;92.20;;;;;;5483310;26;20475;-79
2024/04/15 06:57:37;;;;;;;13.20;4.33;;;18.50;92.90;;;;;;5497078;26;20566;-83
2024/04/15 07:00:04;;;;;;;7.00;3.13;;;18.30;93.00;;;;;;5479179;26;20468;-82
2024/04/15 07:02:32;;;;;;;5.83;3.43;;;18.80;93.20;;;;;;5483720;26;20513;-79
2024/04/15 07:05:01;;;;;;;9.70;4.33;;;19.30;92.60;;;;;;5491319;26;20464;-80
2024/04/15 07:07:29;;;;;;;7.23;4.90;;;19.70;91.40;;;;;;5483245;26;20528;-79
2024/04/15 07:09:55;;;;;;;13.73;3.43;;;19.40;91.90;;;;;;5478154;26;20469;-80
2024/04/15 07:12:24;;;;;;;7.70;4.13;;;19.60;91.30;;;;;;5472732;26;21048;-78
2024/04/15 07:14:50;;;;;;;7.33;3.63;;;19.40;91.60;;;;;;5471667;26;20460;-82
2024/04/15 07:17:18;;;;;;;6.20;3.50;;;19.40;91.60;;;;;;5470354;26;20526;-78
2024/04/15 07:19:44;;;;;;;13.40;4.07;;;19.30;91.40;;;;;;5487365;26;20477;-77
2024/04/15 07:22:18;;;;;;;10.03;3.97;;;19.40;92.00;;;;;;5483798;26;20604;-79
2024/04/15 07:24:44;;;;;;;11.33;4.63;;;19.60;91.60;;;;;;5486534;26;20818;-78
2024/04/15 07:27:13;;;;;;;8.37;3.47;;;20.30;91.20;;;;;;5457786;26;20561;-79
2024/04/15 07:29:39;;;;;;;5.37;3.97;;;20.70;90.80;;;;;;5475306;26;20563;-80
2024/04/15 07:32:08;;;;;;;7.60;4.30;;;21.20;90.40;;;;;;5466085;26;20500;-80
2024/04/15 07:34:34;;;;;;;16.60;4.63;;;21.40;89.90;;;;;;5467984;26;20863;-79
2024/04/15 07:37:03;;;;;;;8.03;4.73;;;20.90;89.10;;;;;;5468158;26;20539;-79
2024/04/15 07:39:31;;;;;;;8.23;4.77;;;20.00;90.30;;;;;;5495423;26;20516;-78
2024/04/15 07:42:00;;;;;;;7.30;4.40;;;19.20;91.20;;;;;;5491396;26;20468;-79
2024/04/15 07:44:26;;;;;;;10.80;5.10;;;19.80;91.80;;;;;;5471714;26;20521;-79
2024/04/15 07:46:54;;;;;;;7.77;4.67;;;19.80;90.90;;;;;;5460594;26;21008;-77
2024/04/15 07:49:20;;;;;;;7.90;5.13;;;20.10;90.90;;;;;;5470075;26;21047;-79
2024/04/15 07:51:49;;;;;;;8.03;4.10;;;18.90;90.70;;;;;;5488392;26;20526;-78
2024/04/15 07:54:15;;;;;;;7.30;4.33;;;18.40;91.80;;;;;;5487053;26;20473;-79
2024/04/15 07:56:46;;;;;;;9.93;5.23;;;17.40;92.20;;;;;;5472300;26;20465;-78
2024/04/15 07:59:12;;;;;;;9.83;4.30;;;17.10;93.40;;;;;;5473936;26;20458;-79
2024/04/15 08:01:42;;;;;;;8.87;4.50;;;17.40;93.80;;;;;;5490504;26;20452;-86
2024/04/15 08:04:08;;;;;;;8.20;4.97;;;18.10;93.00;;;;;;5512772;26;20444;-83
2024/04/15 08:06:36;;;;;;;8.10;4.70;;;19.10;92.40;;;;;;5483788;26;20465;-83
2024/04/15 08:09:03;;;;;;;10.53;4.60;;;19.60;91.30;;;;;;5498310;26;20452;-82
2024/04/15 08:11:32;;;;;;;9.27;4.80;;;19.50;90.40;;;;;;5495687;26;20481;-81
2024/04/15 08:14:02;;;;;;;12.53;5.13;;;20.10;90.20;;;;;;5483246;26;20604;-80
2024/04/15 08:16:34;;;;;;;9.17;5.70;;;19.50;90.00;;;;;;5497811;26;20465;-79
2024/04/15 08:19:00;;;;;;;7.80;5.07;;;19.30;91.00;;;;;;5463792;26;20471;-83
2024/04/15 08:21:31;;;;;;;7.27;4.10;;;19.50;90.50;;;;;;5477262;26;20865;-82
2024/04/15 08:23:58;;;;;;;6.20;4.40;;;19.50;90.00;;;;;;5493217;26;20552;-79
2024/04/15 08:26:26;;;;;;;11.30;5.50;;;19.00;90.10;;;;;;5468269;26;20483;-78
2024/04/15 08:28:52;;;;;;;17.67;5.57;;;18.90;90.80;;;;;;5471095;26;20514;-76
2024/04/15 08:31:25;;;;;;;10.20;4.87;;;18.50;90.90;;;;;;5464864;26;20464;-78
2024/04/15 08:33:51;;;;;;;7.77;4.50;;;17.60;91.80;;;;;;5458117;26;20477;-79
2024/04/15 08:36:20;;;;;;;10.67;4.70;;;17.40;92.70;;;;;;5478140;26;21164;-77
2024/04/15 08:38:46;;;;;;;7.97;4.87;;;17.20;93.10;;;;;;5478676;26;20499;-79
2024/04/15 08:41:21;;;;;;;13.27;5.30;;;16.90;93.10;;;;;;5454988;26;20457;-78
2024/04/15 08:43:52;;;;;;;13.03;5.53;;;17.20;93.30;;;;;;5470957;26;20858;-78
2024/04/15 08:46:26;;;;;;;13.43;6.07;;;16.70;92.70;;;;;;5461280;26;20537;-80
2024/04/15 08:48:52;;;;;;;17.35;5.30;;;16.20;93.20;;;;;;5473915;26;20511;-82
2024/04/15 08:51:22;;;;;;;12.70;5.60;;;15.50;94.10;;;;;;5499030;26;20287;-81
2024/04/15 08:53:48;;;;;;;10.07;5.63;;;15.50;95.00;;;;;;5497245;26;20453;-82
2024/04/15 08:56:17;;;;;;;8.57;5.55;;;15.30;95.30;;;;;;5504333;26;20216;-82
2024/04/15 08:58:48;;;;;;;10.40;6.35;;;15.00;95.70;;;;;;5491133;26;20220;-80
2024/04/15 09:01:17;;;;;;;16.52;6.63;;;15.30;95.80;;;;;;5497088;26;20220;-81
2024/04/15 09:03:46;;;;;;;10.55;5.75;;;15.10;95.50;;;;;;5475852;26;20240;-79
2024/04/15 09:06:17;;;;;;;14.03;4.70;;;15.60;96.20;;;;;;5457089;26;20231;-79
2024/04/15 09:08:43;;;;;;;10.83;5.70;;;16.70;95.10;;;;;;5483220;26;20471;-77
2024/04/15 09:11:12;;;;;;;9.63;4.77;;;18.60;93.10;;;;;;5454501;26;20526;-77
2024/04/15 09:13:38;;;;;;;14.00;5.40;;;20.00;91.40;;;;;;5468606;26;20478;-78
2024/04/15 09:16:07;;;;;;;13.83;6.00;;;20.60;88.50;;;;;;5454817;26;21034;-77
2024/04/15 09:18:33;;;;;;;12.67;5.70;;;21.00;87.70;;;;;;5480486;26;20510;-78
2024/04/15 09:21:05;;;;;;;13.70;5.50;;;21.10;86.70;;;;;;5472800;26;20467;-77
2024/04/15 09:23:32;;;;;;;7.83;5.17;;;20.70;87.90;;;;;;5470423;26;20480;-77
2024/04/15 09:26:01;;;;;;;9.23;5.10;;;21.00;85.70;;;;;;5456534;26;20925;-77
2024/04/15 09:28:27;;;;;;;14.00;6.23;;;20.50;86.00;;;;;;5479903;26;20448;-78
2024/04/15 09:30:57;;;;;;;12.00;4.83;;;20.20;87.50;;;;;;5476890;26;20467;-77
2024/04/15 09:33:25;;;;;;;8.93;5.97;;;20.10;88.40;;;;;;5478878;26;20461;-78
2024/04/15 09:35:56;;;;;;;9.20;7.10;;;19.60;88.50;;;;;;5491967;26;20581;-78
2024/04/15 09:38:26;;;;;;;16.67;5.87;;;19.40;89.10;;;;;;5478878;26;20521;-78
2024/04/15 09:40:55;;;;;;;14.97;5.63;;;19.60;88.90;;;;;;5490536;26;20939;-78
2024/04/15 09:43:23;;;;;;;7.70;5.37;;;20.20;88.00;;;;;;5465014;26;20531;-78
2024/04/15 09:45:52;;;;;;;11.33;5.87;;;20.10;86.70;;;;;;5477757;26;20465;-77
2024/04/15 09:48:22;;;;;;;15.60;6.10;;;19.30;88.10;;;;;;5471842;26;20583;-78
2024/04/15 09:50:55;;;;;;;16.93;6.30;;;18.90;88.60;;;;;;5456926;26;20517;-80
2024/04/15 09:53:34;;;;;;;14.30;6.97;;;18.50;88.90;;;;;;5464526;26;20532;-78
2024/04/15 09:56:05;;;;;;;15.00;6.20;;;18.20;90.20;;;;;;5488387;26;20472;-78
2024/04/15 09:58:34;;;;;;;17.03;7.43;;;17.60;91.00;;;;;;5463195;26;20511;-78
2024/04/15 10:01:03;;;;;;;9.67;5.87;;;16.90;91.80;;;;;;5471677;26;20545;-77
2024/04/15 10:03:31;;;;;;;15.40;5.90;;;16.20;92.40;;;;;;5475257;26;20834;-78
2024/04/15 10:06:06;;;;;;;12.00;7.30;;;15.70;93.60;;;;;;5489785;26;20564;-78
2024/04/15 10:08:35;;;;;;;10.90;7.80;;;15.40;94.40;;;;;;5478655;26;20524;-78
2024/04/15 10:11:04;;;;;;;12.85;8.23;;;15.20;95.70;;;;;;5483402;26;20510;-78
2024/04/15 10:13:32;;;;;;;16.77;8.73;;;15.00;96.60;;;;;;5455977;26;20241;-79
2024/04/15 10:16:02;;;;;;;12.87;7.53;;;15.20;96.70;;;;;;5453082;26;20233;-77
2024/04/15 10:18:29;;;;;;;19.15;9.23;;;15.10;96.70;;;;;;5481982;26;20520;-77
2024/04/15 10:20:59;;;;;;;13.35;9.68;;;14.80;96.80;;;;;;5488240;26;20230;-79
2024/04/15 10:23:28;;;;;;;12.27;7.63;;;14.60;97.20;;;;;;5468032;26;20274;-78
2024/04/15 10:25:59;;;;;;;16.60;8.27;;;14.70;96.80;;;;;;5483214;26;20709;-77
2024/04/15 10:28:25;;;;;;;21.25;8.57;;;14.60;97.00;;;;;;5474333;26;20227;-76
2024/04/15 10:30:54;;;;;;;11.65;7.20;;;14.90;96.10;;;;;;5462687;26;20232;-78
2024/04/15 10:33:20;;;;;;;12.77;7.60;;;15.40;95.40;;;;;;5477953;26;20237;-79
2024/04/15 10:35:54;;;;;;;9.75;6.75;;;15.40;95.60;;;;;;5484099;26;20239;-77
2024/04/15 10:38:20;;;;;;;12.15;7.10;;;15.40;95.80;;;;;;5466019;26;20225;-80
2024/04/15 10:40:49;;;;;;;17.30;7.30;;;15.50;95.40;;;;;;5492842;26;20236;-78
2024/04/15 10:43:21;;;;;;;17.02;7.85;;;15.40;95.50;;;;;;5482487;26;20539;-78
2024/04/15 10:45:50;;;;;;;12.95;9.23;;;15.00;95.70;;;;;;5499676;26;20235;-79
2024/04/15 10:48:16;;;;;;;13.57;7.55;;;14.40;95.90;;;;;;5465760;26;20266;-80
2024/04/15 10:50:45;;;;;;;11.63;7.00;;;14.20;96.50;;;;;;5489259;26;20569;-81
2024/04/15 10:53:11;;;;;;;7.88;6.50;;;14.00;96.80;;;;;;5487912;26;20861;-79
2024/04/15 10:55:40;;;;;;;9.25;6.75;;;13.90;97.20;;;;;;5479844;26;20291;-83
2024/04/15 10:58:09;;;;;;;12.52;8.40;;;13.70;98.00;;;;;;5494347;26;20320;-84
2024/04/15 11:00:45;;;;;;;13.48;8.60;;;13.40;98.30;;;;;;5483970;26;20255;-82
2024/04/15 11:03:11;;;;;;;10.23;7.35;;;13.40;98.80;;;;;;5490548;26;20269;-83
2024/04/15 11:05:40;;;;;;;12.07;7.07;;;13.30;99.20;;;;;;5497805;26;20239;-80
2024/04/15 11:08:09;;;;;;;12.93;7.78;;;13.60;99.00;;;;;;5498047;26;20215;-79
2024/04/15 11:10:38;;;;;;;10.13;7.03;;;14.00;97.90;;;;;;5479879;26;20282;-79
2024/04/15 11:13:09;;;;;;;16.85;8.63;;;14.10;97.80;;;;;;5488756;26;20315;-80
2024/04/15 11:15:40;;;;;;;12.60;6.25;;;14.40;97.80;;;;;;5472863;26;20248;-81
2024/04/15 11:18:13;;;;;;;9.40;6.20;;;15.00;96.90;;;;;;5496387;26;20298;-80
2024/04/15 11:20:43;;;;;;;10.60;7.60;;;15.30;96.20;;;;;;5491731;26;20235;-78
2024/04/15 11:23:09;;;;;;;7.18;5.40;;;15.50;95.50;;;;;;5492981;26;20615;-83
2024/04/15 11:25:39;;;;;;;9.27;6.40;;;15.90;95.20;;;;;;5493864;26;20287;-84
2024/04/15 11:28:07;;;;;;;20.10;5.70;;;15.50;94.70;;;;;;5507893;26;20519;-85
2024/04/15 11:30:36;;;;;;;15.13;5.72;;;15.20;94.60;;;;;;5503141;26;20292;-85
2024/04/15 11:33:05;;;;;;;12.70;5.10;;;15.40;94.50;;;;;;5513242;26;20258;-85
2024/04/15 11:35:34;;;;;;;12.37;4.80;;;15.60;94.00;;;;;;5487279;21;20502;-70
2024/04/15 11:38:02;;;;;;;9.63;4.80;;;15.90;93.50;;;;;;5455694;26;20532;-70
2024/04/15 11:40:31;;;;;;;6.97;4.65;;;15.80;93.30;;;;;;5450185;26;20812;-70
2024/04/15 11:42:57;;;;;;;12.13;6.20;;;15.90;94.00;;;;;;5430882;26;20618;-69
2024/04/15 11:45:26;;;;;;;6.80;5.17;;;16.40;93.50;;;;;;5416056;26;20600;-69
2024/04/15 11:47:53;;;;;;;7.53;4.77;;;16.50;93.50;;;;;;5418881;26;20535;-69
2024/04/15 11:50:24;;;;;;;7.63;4.60;;;16.40;93.00;;;;;;5414329;26;20866;-68
2024/04/15 11:52:51;;;;;;;6.40;4.10;;;16.20;92.80;;;;;;5416677;26;20537;-70
2024/04/15 11:55:20;;;;;;;14.00;7.60;;;16.20;92.30;;;;;;5427075;26;20461;-69
2024/04/15 11:57:47;;;;;;;7.77;4.07;;;16.30;92.30;;;;;;5428526;26;20537;-70
2024/04/15 12:00:17;;;;;;;5.50;3.60;;;16.20;91.70;;;;;;5413494;26;20534;-69
2024/04/15 12:02:44;;;;;;;22.20;5.37;;;16.30;91.30;;;;;;5408277;26;20467;-68
2024/04/15 12:05:14;;;;;;;6.70;4.00;;;16.40;91.20;;;;;;5425120;26;20528;-70
2024/04/15 12:07:43;;;;;;;5.33;3.50;;;16.40;91.30;;;;;;5458523;21;20530;-82
2024/04/15 12:10:14;;;;;;;8.87;4.47;;;16.20;91.40;;;;;;5491871;26;21083;-83
2024/04/15 12:12:41;;;;;;;7.30;4.50;;;16.30;90.50;;;;;;5489032;26;20496;-85
2024/04/15 12:15:11;;;;;;;7.37;3.80;;;16.30;89.40;;;;;;5490809;26;20994;-84
2024/04/15 12:17:37;;;;;;;7.80;3.33;;;16.30;90.50;;;;;;5476507;26;20504;-83
2024/04/15 12:20:07;;;;;;;7.43;3.00;;;15.80;90.70;;;;;;5482102;26;20480;-82
2024/04/15 12:22:33;;;;;;;11.83;3.43;;;16.10;91.00;;;;;;5493406;26;20475;-83
2024/04/15 12:25:05;;;;;;;5.93;3.00;;;16.10;90.70;;;;;;5480077;26;20917;-82
2024/04/15 12:27:31;;;;;;;4.90;2.70;;;16.10;90.80;;;;;;5492064;26;20567;-83
2024/04/15 12:30:00;;;;;;;4.43;2.33;;;16.00;90.40;;;;;;5486025;26;20476;-82
2024/04/15 12:32:26;;;;;;;5.23;2.47;;;15.80;90.50;;;;;;5486067;26;20580;-80
2024/04/15 12:34:54;;;;;;;11.77;3.70;;;15.90;90.30;;;;;;5494065;26;20858;-78
2024/04/15 12:37:20;;;;;;;6.43;2.70;;;15.90;90.50;;;;;;5493106;26;20528;-80
2024/04/15 12:39:49;;;;;;;2.80;2.60;;;16.00;90.30;;;;;;5494312;26;20877;-81
2024/04/15 12:42:18;;;;;;;3.23;2.47;;;16.00;89.50;;;;;;5464394;26;20544;-80
2024/04/15 12:44:47;;;;;;;10.90;2.70;;;16.30;89.80;;;;;;5487398;26;20518;-81
2024/04/15 12:47:13;;;;;;;4.10;3.03;;;16.60;90.10;;;;;;5471932;26;20472;-81
2024/04/15 12:49:41;;;;;;;5.30;2.30;;;16.50;88.80;;;;;;5467554;26;20958;-79